Pays
Station

 

Conditions  météo  pour  Luton Airport  -  Royaume-Uni    Royaume-Uni

  
8 °C
    
 
 

METAR pour Luton Airport :

EGGW 230620Z AUTO 35006KT 300V020 9999 OVC027 08/06 Q1030

 

Voici le bulletin pour Luton Airport - Royaume-Uni.
 
Le bulletin a été fait il y a 25 minutes, à 06:20 UTC .
Le vent soufflait à la vitesse de 3.1 mètres par seconde de Nord (350°), variant entre Ouest/Nord-ouest (300°) et Nord/Nord-est (020°).
 
La température était de 8 °C, avec un point de rosée à 6 °C.
La pression atmosphérique était de 1030 hPa.
L'humidité relative était de 87.2%.
 
Le ciel était nuageux à partir d'une hauteur de 823 mètres
 
La visibilité globale était de supérieure à 10 kilomètres.
 

 
 
 

Pays :   A   B   C   D   E   F   G   H   I   J   K   L   M   N   O   P   Q   R   S   T   U   V   W   Y   Z

 

Partenaires :  Info Météo avec Met'info
Météo Marine avec MeteoMarine.net
Infos Site  |  Infos Légales  |  Crédits  |  Confidentialité
Contactez-nous  |  Ajouter aux favoris
© 2013-2019 METAR - Tous droits réservés